Time;durP1;ratioP1;P1;durP2;ratioP2;P2;SDS_P1;SDS_P2;PMS_P1;PMS_P2;Temp;Humidity;BMP_temperature;BMP_pressure;BME280_temperature;BME280_humidity;BME280_pressure;Samples;Min_cycle;Max_cycle;Signal;HPM_P1;HPM_P2
2023/05/18 00:02:02;;;;;;;9.73;7.87;;;;;;;7.33;95.70;153244.03;4994557;28;20926;-81
2023/05/18 00:04:30;;;;;;;12.00;7.93;;;;;;;7.38;96.38;153254.41;5012461;28;20499;-80
2023/05/18 00:06:57;;;;;;;9.30;7.70;;;;;;;7.38;97.27;153254.41;4995259;28;20452;-81
2023/05/18 00:09:24;;;;;;;10.50;7.87;;;;;;;7.35;97.63;153249.25;4995922;28;21011;-81
2023/05/18 00:11:50;;;;;;;9.10;7.67;;;;;;;7.37;97.59;153253.09;4998160;28;20901;-80
2023/05/18 00:14:18;;;;;;;11.37;7.60;;;;;;;7.32;97.67;153241.47;4997203;28;20945;-81
2023/05/18 00:16:46;;;;;;;8.90;7.43;;;;;;;7.45;96.68;153272.47;5005072;28;20507;-81
2023/05/18 00:19:13;;;;;;;9.93;7.70;;;;;;;7.48;95.96;153281.50;5002284;28;20442;-82
2023/05/18 00:21:40;;;;;;;11.43;7.53;;;;;;;7.38;95.56;153254.41;5006923;28;20450;-81
2023/05/18 00:24:09;;;;;;;9.10;6.43;;;;;;;7.30;95.88;153235.03;5004335;28;20475;-80
2023/05/18 00:26:37;;;;;;;9.80;7.20;;;;;;;7.24;96.72;153219.53;5000729;28;20508;-80
2023/05/18 00:29:03;;;;;;;12.97;7.60;;;;;;;7.12;97.71;153189.81;4971037;28;20462;-81
2023/05/18 00:31:34;;;;;;;10.70;8.23;;;;;;;7.05;97.91;153171.75;5001377;28;20507;-80
2023/05/18 00:34:02;;;;;;;8.13;6.27;;;;;;;6.98;98.00;153153.69;4997727;28;20535;-81
2023/05/18 00:36:28;;;;;;;9.83;8.00;;;;;;;6.92;98.27;153136.88;5011569;28;20560;-80
2023/05/18 00:38:55;;;;;;;9.00;7.57;;;;;;;6.87;97.91;153125.28;5008065;28;20472;-81
2023/05/18 00:41:22;;;;;;;8.53;7.23;;;;;;;6.85;98.37;153118.81;5009626;28;20460;-81
2023/05/18 00:43:48;;;;;;;8.37;7.17;;;;;;;6.86;99.22;153122.69;5009150;28;20840;-81
2023/05/18 00:46:15;;;;;;;9.80;6.90;;;;;;;6.84;98.98;153116.22;5011012;28;20507;-81
2023/05/18 00:48:43;;;;;;;9.27;6.90;;;;;;;6.81;99.03;153109.78;5006885;28;20531;-80
2023/05/18 00:51:10;;;;;;;10.33;6.77;;;;;;;6.79;99.04;153104.63;4995070;28;20890;-81
2023/05/18 00:53:37;;;;;;;7.40;5.90;;;;;;;6.74;99.39;153093.03;5012098;28;20539;-81
2023/05/18 00:56:03;;;;;;;7.50;6.13;;;;;;;6.75;99.92;153094.31;4969394;28;20512;-81
2023/05/18 00:58:31;;;;;;;8.90;6.60;;;;;;;6.77;99.99;153099.47;4993904;28;20461;-81
2023/05/18 01:00:57;;;;;;;6.57;5.70;;;;;;;6.80;99.38;153105.91;5009731;28;20549;-81
2023/05/18 01:03:25;;;;;;;8.50;6.30;;;;;;;6.82;98.97;153112.38;5010715;28;20472;-81
2023/05/18 01:05:54;;;;;;;7.13;6.10;;;;;;;6.87;98.63;153125.28;4984721;28;20456;-81
2023/05/18 01:08:22;;;;;;;9.50;6.50;;;;;;;6.84;98.79;153116.22;5010342;28;20465;-81
2023/05/18 01:10:50;;;;;;;10.00;6.77;;;;;;;6.95;98.11;153144.63;5010400;28;20437;-80
2023/05/18 01:13:23;;;;;;;8.67;6.90;;;;;;;6.99;98.28;153155.00;4993159;28;20508;-81
2023/05/18 01:15:54;;;;;;;8.20;6.20;;;;;;;7.07;97.62;153176.91;5006220;28;20467;-81
2023/05/18 01:18:27;;;;;;;10.13;7.10;;;;;;;7.14;97.08;153195.00;5010106;28;20825;-80
2023/05/18 01:20:59;;;;;;;9.97;6.50;;;;;;;7.22;96.76;153215.66;4991862;28;20987;-80
2023/05/18 01:23:53;;;;;;;7.97;6.27;;;;;;;7.21;96.44;153213.06;4995740;28;20474;-80
2023/05/18 01:26:28;;;;;;;6.50;5.90;;;;;;;7.22;96.54;153214.38;4991466;28;20548;-80
2023/05/18 01:28:56;;;;;;;9.60;6.13;;;;;;;7.13;96.96;153192.41;5010372;28;20453;-80
2023/05/18 01:31:22;;;;;;;6.27;5.30;;;;;;;7.15;97.09;153196.25;4992437;28;20544;-80
2023/05/18 01:33:49;;;;;;;8.13;5.97;;;;;;;7.04;97.76;153169.16;4999617;28;20460;-81
2023/05/18 01:36:15;;;;;;;7.70;6.33;;;;;;;7.05;97.58;153170.44;5001315;28;20453;-81
2023/05/18 01:38:42;;;;;;;7.50;6.03;;;;;;;6.96;97.97;153147.25;5003971;28;20461;-81
2023/05/18 01:41:13;;;;;;;6.37;5.67;;;;;;;6.92;97.87;153138.19;4977407;28;20459;-81
2023/05/18 01:43:49;;;;;;;7.67;5.90;;;;;;;7.03;96.69;153166.59;5009983;28;20487;-81
2023/05/18 01:46:22;;;;;;;6.33;5.60;;;;;;;7.01;97.00;153160.13;5010286;28;20456;-81
2023/05/18 01:48:52;;;;;;;9.37;5.70;;;;;;;6.98;97.36;153153.69;5002778;28;20465;-81
2023/05/18 01:51:20;;;;;;;6.53;5.90;;;;;;;7.01;96.93;153161.44;4982160;28;20463;-81
2023/05/18 01:53:53;;;;;;;9.50;6.57;;;;;;;6.96;97.71;153148.53;4995683;28;20511;-81
2023/05/18 01:56:20;;;;;;;8.53;6.43;;;;;;;6.93;97.79;153139.47;5009920;28;20481;-81
2023/05/18 01:58:49;;;;;;;10.70;6.20;;;;;;;6.86;98.48;153122.69;5007196;28;20495;-81
2023/05/18 02:01:18;;;;;;;9.40;6.37;;;;;;;6.90;97.17;153133.03;4991156;28;20485;-81
2023/05/18 02:03:45;;;;;;;7.73;6.00;;;;;;;6.99;96.55;153156.25;4976275;28;20491;-81
2023/05/18 02:06:12;;;;;;;8.23;6.53;;;;;;;7.06;94.70;153173.03;4978004;28;20462;-81
2023/05/18 02:08:39;;;;;;;8.27;5.93;;;;;;;7.07;94.02;153176.91;5009324;28;20457;-81
2023/05/18 02:11:06;;;;;;;6.20;5.60;;;;;;;7.12;93.82;153189.81;5007281;28;20502;-81
2023/05/18 02:13:33;;;;;;;8.73;6.77;;;;;;;7.10;94.11;153183.34;4976048;28;20453;-81
2023/05/18 02:16:00;;;;;;;7.63;5.73;;;;;;;7.11;94.09;153185.94;5005508;28;20549;-81
2023/05/18 02:18:27;;;;;;;6.67;5.67;;;;;;;7.13;93.60;153192.41;4993416;28;20453;-81
2023/05/18 02:20:58;;;;;;;7.33;5.70;;;;;;;7.12;93.35;153189.81;4976182;28;20434;-81
2023/05/18 02:23:25;;;;;;;8.87;5.60;;;;;;;7.11;93.76;153187.25;4975848;28;20486;-81
2023/05/18 02:25:54;;;;;;;6.80;5.70;;;;;;;7.04;94.27;153169.16;5004266;28;20464;-80
2023/05/18 02:28:20;;;;;;;8.40;5.53;;;;;;;7.02;94.26;153164.00;5009212;28;20448;-80
2023/05/18 02:30:47;;;;;;;7.50;5.27;;;;;;;7.05;93.65;153170.44;5009936;28;20433;-80
2023/05/18 02:33:18;;;;;;;7.60;6.07;;;;;;;7.02;94.06;153162.69;5000720;28;20568;-81
2023/05/18 02:35:45;;;;;;;6.20;5.60;;;;;;;7.04;93.59;153169.16;4993881;28;20503;-81
2023/05/18 02:38:11;;;;;;;7.70;6.27;;;;;;;7.03;93.58;153166.59;4991709;28;20453;-81
2023/05/18 02:40:38;;;;;;;8.67;6.10;;;;;;;7.00;93.58;153158.84;5005351;28;20523;-81
2023/05/18 02:43:04;;;;;;;6.47;5.30;;;;;;;7.01;93.25;153160.13;5002034;28;20485;-81
2023/05/18 02:45:31;;;;;;;9.00;5.80;;;;;;;6.99;92.26;153155.00;4988642;28;20525;-81
2023/05/18 02:47:59;;;;;;;7.07;5.70;;;;;;;6.98;91.87;153153.69;5003980;28;20481;-81
2023/05/18 02:50:26;;;;;;;8.13;5.87;;;;;;;7.07;91.41;153175.66;4984120;28;20453;-81
2023/05/18 02:52:54;;;;;;;10.20;6.10;;;;;;;7.08;90.35;153179.50;4980346;28;20465;-81
2023/05/18 02:55:21;;;;;;;9.70;5.87;;;;;;;7.10;90.47;153184.66;5007573;28;20884;-82
2023/05/18 02:57:59;;;;;;;6.73;5.27;;;;;;;7.10;90.77;153184.66;5019662;28;20456;-81
2023/05/18 03:00:48;;;;;;;7.20;5.60;;;;;;;7.02;90.98;153164.00;4996702;28;20462;-81
2023/05/18 03:03:15;;;;;;;9.97;6.03;;;;;;;6.97;91.14;153149.78;4981856;28;20859;-81
2023/05/18 03:05:43;;;;;;;13.93;6.37;;;;;;;6.93;91.60;153139.47;4988880;28;20504;-81
2023/05/18 03:08:10;;;;;;;8.10;5.80;;;;;;;6.90;91.13;153131.72;5007814;28;20986;-81
2023/05/18 03:10:36;;;;;;;8.60;6.03;;;;;;;6.87;91.90;153125.28;4989722;28;20893;-81
2023/05/18 03:13:04;;;;;;;7.43;5.70;;;;;;;6.87;92.18;153125.28;4972174;28;20495;-81
2023/05/18 03:15:31;;;;;;;6.50;5.70;;;;;;;6.83;91.42;153114.94;4952778;28;20458;-81
2023/05/18 03:17:58;;;;;;;10.00;6.70;;;;;;;6.84;91.63;153117.53;4956970;28;20546;-82
2023/05/18 03:20:26;;;;;;;7.70;5.60;;;;;;;6.91;90.83;153135.59;4952968;28;20460;-81
2023/05/18 03:22:54;;;;;;;7.70;6.10;;;;;;;6.91;90.84;153135.59;4952077;28;20472;-81
2023/05/18 03:25:24;;;;;;;7.90;5.90;;;;;;;6.89;91.10;153130.44;4962926;28;20817;-81
2023/05/18 03:27:51;;;;;;;6.20;5.03;;;;;;;6.84;90.59;153117.53;4969574;28;20871;-82
2023/05/18 03:30:18;;;;;;;7.53;5.70;;;;;;;6.87;90.88;153123.97;4970900;28;20561;-81
2023/05/18 03:32:45;;;;;;;7.77;5.70;;;;;;;6.85;90.24;153120.13;4969069;28;20466;-81
2023/05/18 03:35:11;;;;;;;9.47;5.80;;;;;;;6.82;90.51;153112.38;4987840;28;20532;-81
2023/05/18 03:37:38;;;;;;;7.30;6.27;;;;;;;6.77;90.95;153099.47;4948978;28;21004;-82
2023/05/18 03:40:12;;;;;;;7.37;5.37;;;;;;;6.68;91.42;153076.22;4955034;28;20549;-82
2023/05/18 03:42:39;;;;;;;7.37;5.30;;;;;;;6.58;92.43;153050.41;4981756;28;20455;-82
2023/05/18 03:45:07;;;;;;;9.07;6.10;;;;;;;6.54;92.08;153040.13;4958688;28;20474;-82
2023/05/18 03:47:34;;;;;;;9.27;6.40;;;;;;;6.53;92.73;153037.50;4972662;28;20449;-81
2023/05/18 03:50:01;;;;;;;6.00;5.40;;;;;;;6.46;92.68;153019.47;4987295;28;20536;-82
2023/05/18 03:52:28;;;;;;;9.20;5.40;;;;;;;6.47;92.65;153022.00;4955424;28;20495;-82
2023/05/18 03:54:55;;;;;;;5.47;4.80;;;;;;;6.46;93.02;153019.47;4949218;28;20540;-82
2023/05/18 03:57:24;;;;;;;6.33;5.73;;;;;;;6.46;93.14;153019.47;4982228;28;20786;-81
2023/05/18 03:59:50;;;;;;;7.80;5.27;;;;;;;6.48;92.95;153024.63;4984173;28;20442;-81
2023/05/18 04:02:17;;;;;;;6.83;5.47;;;;;;;6.47;92.77;153023.31;4953714;28;20977;-81
2023/05/18 04:04:44;;;;;;;7.73;5.73;;;;;;;6.46;92.70;153019.47;4967240;28;20904;-81
2023/05/18 04:07:11;;;;;;;6.40;4.93;;;;;;;6.45;93.01;153016.88;4978099;28;20458;-80
2023/05/18 04:09:38;;;;;;;6.30;5.70;;;;;;;6.49;93.13;153027.16;4958000;28;20459;-80
2023/05/18 04:12:06;;;;;;;6.50;5.33;;;;;;;6.50;91.99;153031.06;4984094;28;20480;-80
2023/05/18 04:14:34;;;;;;;6.00;4.90;;;;;;;6.52;92.37;153036.22;4969645;28;20484;-80
2023/05/18 04:17:03;;;;;;;5.30;4.80;;;;;;;6.56;92.19;153045.25;5006200;28;20444;-80
2023/05/18 04:19:31;;;;;;;7.00;5.10;;;;;;;6.57;91.43;153047.81;5005402;28;20454;-80
2023/05/18 04:21:58;;;;;;;6.97;5.50;;;;;;;6.59;91.45;153054.28;5002805;28;20453;-80
2023/05/18 04:24:25;;;;;;;9.40;5.27;;;;;;;6.63;91.67;153063.31;4989950;28;20479;-80
2023/05/18 04:26:52;;;;;;;5.90;5.20;;;;;;;6.68;90.97;153077.50;5003154;28;20473;-80
2023/05/18 04:29:20;;;;;;;6.80;5.17;;;;;;;6.73;90.15;153089.13;5001444;28;20871;-81
2023/05/18 04:31:48;;;;;;;6.50;5.33;;;;;;;6.81;90.18;153109.78;4979073;28;20462;-81
2023/05/18 04:34:16;;;;;;;6.80;4.70;;;;;;;6.90;89.76;153133.03;5010798;28;20461;-80
2023/05/18 04:36:43;;;;;;;6.27;5.37;;;;;;;6.97;89.25;153151.09;4973099;28;20450;-81
2023/05/18 04:39:29;;;;;;;7.07;5.50;;;;;;;7.09;87.76;153182.09;4967388;28;20960;-81
2023/05/18 04:41:57;;;;;;;5.97;4.63;;;;;;;7.18;87.27;153205.31;4994186;28;20854;-81
2023/05/18 04:44:26;;;;;;;7.07;5.87;;;;;;;7.34;87.33;153246.63;4983484;28;20480;-81
2023/05/18 04:46:54;;;;;;;7.03;4.90;;;;;;;7.52;86.68;153290.56;5005834;28;20828;-81
2023/05/18 04:49:21;;;;;;;7.07;4.90;;;;;;;7.67;85.47;153329.31;4975393;28;20449;-81
2023/05/18 04:51:48;;;;;;;5.80;4.60;;;;;;;7.79;84.06;153360.28;5006540;28;20560;-81
2023/05/18 04:54:15;;;;;;;6.93;4.53;;;;;;;7.90;83.60;153388.72;4992800;28;20473;-81
2023/05/18 04:56:42;;;;;;;6.27;4.47;;;;;;;8.03;82.91;153422.31;4982935;28;20918;-81
2023/05/18 04:59:09;;;;;;;5.63;4.60;;;;;;;8.09;81.11;153437.81;5014976;28;20559;-81
2023/05/18 05:01:36;;;;;;;5.23;4.30;;;;;;;8.16;81.55;153455.91;4994808;28;20520;-81
2023/05/18 05:04:05;;;;;;;6.23;4.10;;;;;;;8.24;80.42;153476.59;5009324;28;20442;-82
2023/05/18 05:06:31;;;;;;;7.33;4.97;;;;;;;8.37;79.74;153508.94;4975238;28;20546;-81
2023/05/18 05:08:58;;;;;;;5.20;4.37;;;;;;;8.45;80.39;153530.91;5005857;28;20853;-82
2023/05/18 05:11:24;;;;;;;5.50;4.10;;;;;;;8.50;78.75;153543.84;4990643;28;20557;-81
2023/05/18 05:13:51;;;;;;;5.07;4.57;;;;;;;8.55;78.53;153555.50;5009050;28;20490;-81
2023/05/18 05:16:18;;;;;;;4.60;4.10;;;;;;;8.71;78.82;153595.56;4992579;28;20523;-81
2023/05/18 05:18:44;;;;;;;8.20;5.30;;;;;;;8.74;78.55;153603.28;4986191;28;20462;-81
2023/05/18 05:21:12;;;;;;;6.47;5.33;;;;;;;8.88;77.67;153639.50;4975732;28;20465;-82
2023/05/18 05:23:40;;;;;;;6.00;4.47;;;;;;;8.94;77.03;153656.34;4990191;28;20495;-81
2023/05/18 05:26:06;;;;;;;7.10;4.27;;;;;;;9.08;76.72;153691.25;4980360;28;20485;-81
2023/05/18 05:28:33;;;;;;;5.53;4.40;;;;;;;9.17;77.43;153714.50;4991586;28;20489;-81
2023/05/18 05:30:59;;;;;;;6.90;5.27;;;;;;;9.23;77.93;153730.03;5006594;28;20452;-81
2023/05/18 05:33:26;;;;;;;6.33;5.30;;;;;;;9.13;76.67;153704.19;5006206;28;20928;-82
2023/05/18 05:35:53;;;;;;;6.07;4.27;;;;;;;9.19;77.66;153720.97;4992174;28;20464;-81
2023/05/18 05:38:21;;;;;;;7.77;5.00;;;;;;;9.33;76.47;153755.91;5010813;28;20452;-81
2023/05/18 05:40:47;;;;;;;4.70;4.10;;;;;;;9.36;76.69;153763.66;4976812;28;21010;-81
2023/05/18 05:43:14;;;;;;;6.10;4.23;;;;;;;9.37;75.32;153764.97;4996266;28;20477;-81
2023/05/18 05:45:42;;;;;;;6.43;4.77;;;;;;;9.47;75.30;153792.13;4988509;28;20479;-81
2023/05/18 05:48:09;;;;;;;7.60;4.70;;;;;;;9.58;77.19;153820.56;4974197;28;20455;-82
2023/05/18 05:50:35;;;;;;;5.30;4.27;;;;;;;9.66;75.02;153841.25;4988644;28;20455;-82
2023/05/18 05:53:04;;;;;;;5.40;4.90;;;;;;;9.79;76.09;153873.66;4981169;28;20476;-82
2023/05/18 05:55:39;;;;;;;5.63;4.40;;;;;;;9.90;75.88;153900.81;4982465;28;20999;-82
2023/05/18 05:58:06;;;;;;;5.90;5.13;;;;;;;9.88;74.95;153896.91;4976236;28;20515;-81
2023/05/18 06:00:33;;;;;;;6.50;4.50;;;;;;;9.97;75.46;153920.22;4989019;28;20464;-82
2023/05/18 06:03:01;;;;;;;4.60;4.13;;;;;;;10.10;73.97;153952.56;4987351;28;20465;-81
2023/05/18 06:05:33;;;;;;;12.17;4.50;;;;;;;10.16;74.02;153969.47;4961587;28;20484;-81
2023/05/18 06:08:00;;;;;;;5.07;4.43;;;;;;;10.34;72.43;154016.06;4992962;28;20468;-81
2023/05/18 06:10:27;;;;;;;7.53;4.50;;;;;;;10.47;72.54;154047.13;5010840;28;20475;-81
2023/05/18 06:12:55;;;;;;;9.03;4.10;;;;;;;10.46;69.99;154045.81;4989770;28;20496;-82
2023/05/18 06:15:29;;;;;;;5.30;4.70;;;;;;;10.52;69.69;154061.34;4977673;28;20855;-83
2023/05/18 06:17:56;;;;;;;6.60;4.33;;;;;;;10.52;70.30;154061.34;4999785;28;20473;-82
2023/05/18 06:20:23;;;;;;;5.00;4.13;;;;;;;10.65;69.87;154095.03;4991985;28;20439;-82
2023/05/18 06:22:50;;;;;;;10.63;4.47;;;;;;;10.83;70.26;154141.63;4990803;28;20454;-82
2023/05/18 06:25:23;;;;;;;6.50;5.20;;;;;;;10.89;69.05;154157.19;5000299;28;20475;-81
2023/05/18 06:28:04;;;;;;;6.90;5.27;;;;;;;10.99;69.26;154183.09;4978469;28;20461;-81
2023/05/18 06:31:00;;;;;;;4.63;4.00;;;;;;;11.08;69.67;154205.13;4989088;28;20466;-81
2023/05/18 06:33:45;;;;;;;5.07;4.00;;;;;;;11.27;68.14;154253.03;4958007;28;20494;-82
2023/05/18 06:36:12;;;;;;;9.63;4.50;;;;;;;11.33;67.75;154268.59;4983063;28;20870;-82
2023/05/18 06:38:39;;;;;;;9.33;4.97;;;;;;;11.50;68.62;154312.63;5007579;28;20506;-82
2023/05/18 06:41:06;;;;;;;5.80;3.97;;;;;;;11.39;67.51;154284.13;4977122;28;20905;-82
2023/05/18 06:43:33;;;;;;;4.83;4.20;;;;;;;11.39;67.16;154284.13;4996526;28;20470;-82
2023/05/18 06:46:20;;;;;;;7.17;4.43;;;;;;;11.38;67.96;154282.84;4995274;28;20471;-82
2023/05/18 06:48:48;;;;;;;5.00;4.20;;;;;;;11.47;66.24;154304.84;4998074;28;20458;-82
2023/05/18 06:51:15;;;;;;;4.67;4.27;;;;;;;11.38;67.33;154281.56;4994701;28;20451;-82
2023/05/18 06:53:43;;;;;;;10.87;5.07;;;;;;;11.48;67.22;154307.47;4978559;28;20505;-82
2023/05/18 06:56:11;;;;;;;5.87;3.97;;;;;;;11.53;67.61;154320.41;4997409;28;20455;-82
2023/05/18 06:58:41;;;;;;;6.00;3.83;;;;;;;11.56;67.33;154328.19;4985615;28;20995;-82
2023/05/18 07:01:09;;;;;;;8.10;4.80;;;;;;;11.85;66.59;154403.41;4972107;28;20982;-83
2023/05/18 07:03:36;;;;;;;8.13;4.87;;;;;;;11.84;66.57;154399.50;4985738;28;20461;-83
2023/05/18 07:06:03;;;;;;;10.13;4.40;;;;;;;11.90;66.47;154416.38;4983329;28;20476;-82
2023/05/18 07:08:29;;;;;;;5.00;4.40;;;;;;;12.09;66.24;154465.63;4983267;28;20816;-83
2023/05/18 07:10:56;;;;;;;5.23;4.33;;;;;;;11.91;66.36;154418.97;5001686;28;20804;-82
2023/05/18 07:13:23;;;;;;;4.77;4.27;;;;;;;12.10;66.53;154468.19;4991518;28;20478;-83
2023/05/18 07:15:51;;;;;;;5.57;4.47;;;;;;;12.20;65.40;154494.13;4988736;28;20460;-83
2023/05/18 07:18:18;;;;;;;6.30;4.17;;;;;;;12.30;66.84;154517.47;5005231;28;20472;-83
2023/05/18 07:20:44;;;;;;;7.60;5.30;;;;;;;12.33;64.93;154526.56;5010005;28;20459;-83
2023/05/18 07:23:11;;;;;;;10.43;4.70;;;;;;;12.40;65.69;154544.69;4975136;28;20472;-83
2023/05/18 07:25:37;;;;;;;6.40;4.90;;;;;;;12.67;65.37;154613.44;5010326;28;20476;-83
2023/05/18 07:28:04;;;;;;;6.50;5.47;;;;;;;12.74;64.39;154631.56;5011727;28;20464;-85
2023/05/18 07:30:31;;;;;;;6.80;4.90;;;;;;;12.57;64.28;154587.50;5006148;28;20452;-84
2023/05/18 07:32:59;;;;;;;5.40;4.20;;;;;;;12.58;64.66;154590.06;4994254;28;20560;-84
2023/05/18 07:35:26;;;;;;;7.00;5.20;;;;;;;12.69;65.05;154618.63;5007553;28;20458;-83
2023/05/18 07:37:52;;;;;;;8.90;5.17;;;;;;;12.98;64.24;154693.84;4996187;28;20548;-84
2023/05/18 07:40:19;;;;;;;5.70;4.27;;;;;;;13.32;65.07;154782.13;4991282;28;20480;-83
2023/05/18 07:42:46;;;;;;;7.13;4.90;;;;;;;13.84;63.41;154915.81;5008842;28;20495;-84
2023/05/18 07:45:13;;;;;;;6.07;4.63;;;;;;;13.98;61.97;154952.13;5007961;28;20460;-84
2023/05/18 07:47:39;;;;;;;5.80;5.07;;;;;;;13.66;61.90;154869.06;5009181;28;20472;-84
2023/05/18 07:50:08;;;;;;;6.37;4.70;;;;;;;13.57;62.41;154844.41;4986911;28;20792;-84
2023/05/18 07:52:35;;;;;;;5.70;5.07;;;;;;;13.62;62.89;154858.69;5009203;28;20454;-84
2023/05/18 07:55:02;;;;;;;6.17;4.97;;;;;;;13.74;61.40;154888.56;5010672;28;20515;-84
2023/05/18 07:57:30;;;;;;;5.97;4.63;;;;;;;13.85;61.77;154917.06;4987718;28;20453;-84
2023/05/18 07:59:56;;;;;;;7.23;5.20;;;;;;;13.78;61.64;154898.91;5008661;28;20900;-84
2023/05/18 08:02:23;;;;;;;8.77;4.83;;;;;;;13.48;62.58;154821.03;4989033;28;20465;-84
2023/05/18 08:04:50;;;;;;;7.30;5.27;;;;;;;13.63;62.45;154860.00;4990247;28;20547;-84
2023/05/18 08:07:18;;;;;;;9.70;4.93;;;;;;;13.79;62.51;154901.53;5005063;28;20473;-84
2023/05/18 08:09:45;;;;;;;7.53;5.00;;;;;;;14.21;63.33;155010.59;5000805;28;20465;-83
2023/05/18 08:12:11;;;;;;;6.73;4.93;;;;;;;14.39;60.43;155056.06;5005990;28;20465;-84
2023/05/18 08:14:38;;;;;;;8.17;5.30;;;;;;;14.56;59.98;155101.50;5008891;28;20489;-84
2023/05/18 08:17:05;;;;;;;12.03;4.90;;;;;;;14.63;59.70;155119.72;5004705;28;20459;-84
2023/05/18 08:19:31;;;;;;;5.67;4.67;;;;;;;14.34;60.29;155044.41;4991529;28;20471;-84
2023/05/18 08:21:58;;;;;;;6.53;4.23;;;;;;;14.37;60.29;155050.88;5003681;28;21052;-84
2023/05/18 08:24:26;;;;;;;5.53;4.73;;;;;;;14.36;59.51;155049.59;5006636;28;20961;-84
2023/05/18 08:26:53;;;;;;;6.40;5.50;;;;;;;14.44;61.29;155069.06;4988163;28;20491;-84
2023/05/18 08:29:19;;;;;;;6.20;5.10;;;;;;;14.63;59.25;155118.41;4983324;28;20485;-84
2023/05/18 08:31:46;;;;;;;7.13;4.70;;;;;;;14.53;58.62;155092.47;5005512;28;20456;-84
2023/05/18 08:34:12;;;;;;;5.67;4.50;;;;;;;14.64;58.49;155122.28;4999845;28;20516;-84
2023/05/18 08:36:39;;;;;;;7.00;4.90;;;;;;;14.88;58.66;155182.09;4987079;28;20459;-83
2023/05/18 08:39:08;;;;;;;6.67;5.50;;;;;;;14.99;57.92;155210.63;5005410;28;20817;-84
2023/05/18 08:41:40;;;;;;;5.33;4.83;;;;;;;15.02;57.52;155218.44;4989537;28;20595;-84
2023/05/18 08:44:11;;;;;;;5.33;4.83;;;;;;;14.94;55.46;155197.66;5006206;28;20815;-84
2023/05/18 08:46:41;;;;;;;6.63;5.03;;;;;;;15.09;56.60;155236.66;4988824;28;20471;-84
2023/05/18 08:49:09;;;;;;;4.93;4.50;;;;;;;14.88;56.19;155182.09;4989015;28;20488;-84
2023/05/18 08:51:37;;;;;;;8.60;4.73;;;;;;;15.12;56.82;155244.41;5006952;28;20506;-84
2023/05/18 08:54:05;;;;;;;5.67;4.73;;;;;;;15.24;54.32;155275.63;4991144;28;20858;-84
2023/05/18 08:56:33;;;;;;;5.33;4.73;;;;;;;15.01;55.12;155217.13;4985956;28;20457;-78
2023/05/18 08:59:06;;;;;;;4.97;4.47;;;;;;;15.10;56.16;155239.22;5022490;28;20454;-78
2023/05/18 09:01:33;;;;;;;7.97;4.80;;;;;;;15.52;54.85;155348.44;5003162;28;20994;-78
2023/05/18 09:04:00;;;;;;;8.47;4.83;;;;;;;15.45;52.61;155330.19;5007320;28;20882;-84
2023/05/18 09:06:28;;;;;;;4.40;4.00;;;;;;;15.32;53.13;155295.09;5008661;28;20807;-84
2023/05/18 09:08:56;;;;;;;8.00;4.90;;;;;;;15.15;53.93;155252.22;5004480;28;20848;-84
2023/05/18 09:11:25;;;;;;;6.97;4.27;;;;;;;15.05;55.00;155226.22;4970302;28;20481;-85
2023/05/18 09:13:51;;;;;;;6.50;4.33;;;;;;;15.15;55.23;155252.22;4995758;28;20975;-84
2023/05/18 09:16:19;;;;;;;6.10;4.70;;;;;;;15.42;54.84;155322.41;4989740;28;20464;-84
2023/05/18 09:18:46;;;;;;;6.83;4.40;;;;;;;15.35;53.70;155304.22;4984472;28;20468;-84
2023/05/18 09:21:12;;;;;;;7.00;4.97;;;;;;;15.44;53.74;155327.59;5008926;28;20456;-84
2023/05/18 09:23:40;;;;;;;7.90;4.47;;;;;;;15.72;53.43;155399.16;5004980;28;20915;-84
2023/05/18 09:26:08;;;;;;;9.60;4.77;;;;;;;15.56;53.19;155357.56;5008508;28;20480;-84
2023/05/18 09:28:36;;;;;;;5.67;4.17;;;;;;;15.47;53.00;155335.44;5008531;28;20535;-85
2023/05/18 09:31:03;;;;;;;7.07;4.60;;;;;;;15.34;52.71;155300.28;5010010;28;20466;-84
2023/05/18 09:33:35;;;;;;;8.13;4.67;;;;;;;15.41;52.67;155318.53;4990282;28;20464;-84
2023/05/18 09:36:04;;;;;;;8.73;4.60;;;;;;;15.28;52.78;155286.00;4990677;28;20452;-84
2023/05/18 09:38:30;;;;;;;6.47;4.47;;;;;;;15.15;53.02;155253.53;4990396;28;20503;-84
2023/05/18 09:40:59;;;;;;;5.87;4.30;;;;;;;14.99;51.91;155210.63;5008245;28;20814;-84
2023/05/18 09:43:27;;;;;;;6.23;4.20;;;;;;;15.01;53.02;155215.88;4984954;28;20460;-84
2023/05/18 09:45:53;;;;;;;5.00;4.07;;;;;;;14.98;54.01;155208.06;5004908;28;20483;-84
2023/05/18 09:48:21;;;;;;;5.53;4.60;;;;;;;15.06;54.15;155230.09;4986284;28;20471;-84
2023/05/18 09:50:49;;;;;;;5.57;4.17;;;;;;;15.37;52.08;155308.09;5006122;28;20452;-84
2023/05/18 09:53:16;;;;;;;4.20;3.80;;;;;;;15.35;52.08;155302.91;4998968;28;20467;-84
2023/05/18 09:55:46;;;;;;;7.10;4.80;;;;;;;15.08;51.81;155234.03;4984107;28;20506;-84
2023/05/18 09:58:13;;;;;;;5.43;4.00;;;;;;;15.06;51.64;155228.84;5008949;28;20470;-84
2023/05/18 10:00:42;;;;;;;5.67;3.90;;;;;;;14.83;52.50;155170.34;4991511;28;20973;-84
2023/05/18 10:03:17;;;;;;;4.30;3.90;;;;;;;15.11;53.21;155243.16;4990313;28;20463;-84
2023/05/18 10:05:43;;;;;;;5.87;4.17;;;;;;;15.27;52.60;155284.69;4991432;28;20447;-84
2023/05/18 10:08:12;;;;;;;6.50;3.83;;;;;;;15.31;51.92;155292.50;4980835;28;20454;-84
2023/05/18 10:10:39;;;;;;;9.00;4.93;;;;;;;15.32;51.30;155296.41;4989785;28;20445;-83
2023/05/18 10:13:05;;;;;;;4.73;4.23;;;;;;;15.13;51.90;155248.34;5006894;28;20463;-84
2023/05/18 10:15:32;;;;;;;4.90;3.90;;;;;;;15.10;51.66;155239.22;4991846;28;20444;-84
2023/05/18 10:17:59;;;;;;;4.23;3.83;;;;;;;15.17;53.33;155257.41;4975268;28;20551;-84
2023/05/18 10:20:26;;;;;;;5.93;4.20;;;;;;;15.52;51.89;155348.44;4981596;28;20454;-84
2023/05/18 10:22:54;;;;;;;6.13;4.30;;;;;;;15.46;51.83;155331.56;4998549;28;20829;-84
2023/05/18 10:25:26;;;;;;;6.07;4.20;;;;;;;15.40;52.33;155317.22;4991990;28;20463;-84
2023/05/18 10:27:56;;;;;;;5.17;4.63;;;;;;;15.44;51.58;155327.59;5008002;28;20491;-85
2023/05/18 10:30:23;;;;;;;4.80;3.80;;;;;;;15.33;51.05;155298.97;4985409;28;20536;-84
2023/05/18 10:32:51;;;;;;;8.03;3.77;;;;;;;15.33;50.58;155298.97;5003696;28;20467;-84
2023/05/18 10:35:18;;;;;;;6.27;4.17;;;;;;;14.95;51.64;155200.25;5007103;28;20467;-84
2023/05/18 10:37:47;;;;;;;5.83;4.53;;;;;;;15.08;53.15;155234.03;4994210;28;20455;-84
2023/05/18 10:40:14;;;;;;;8.30;4.80;;;;;;;15.15;50.12;155253.53;4990666;28;20965;-84
2023/05/18 10:42:43;;;;;;;7.23;4.70;;;;;;;14.93;51.08;155195.06;5007558;28;21029;-84
2023/05/18 10:45:10;;;;;;;10.53;3.70;;;;;;;14.85;50.54;155175.53;5008939;28;20453;-84
2023/05/18 10:47:38;;;;;;;7.10;4.17;;;;;;;14.88;52.26;155182.09;5004602;28;20498;-84
2023/05/18 10:50:06;;;;;;;5.60;4.03;;;;;;;15.03;51.92;155221.03;5003283;28;20814;-84
2023/05/18 10:52:33;;;;;;;4.80;4.10;;;;;;;15.10;51.12;155240.53;4988720;28;20816;-84
2023/05/18 10:55:00;;;;;;;5.00;3.80;;;;;;;15.14;51.07;155249.66;5006362;28;20462;-84
2023/05/18 10:57:33;;;;;;;4.97;3.47;;;;;;;15.18;49.91;155260.00;4981612;28;20470;-84
2023/05/18 11:00:01;;;;;;;7.43;3.83;;;;;;;15.16;50.55;155254.81;5012199;28;20807;-84
2023/05/18 11:02:27;;;;;;;6.70;4.20;;;;;;;14.89;50.80;155184.66;5011199;28;20444;-84
2023/05/18 11:04:55;;;;;;;3.80;3.20;;;;;;;14.74;51.68;155147.00;5011154;28;20435;-84
2023/05/18 11:07:22;;;;;;;4.67;3.70;;;;;;;14.93;51.68;155195.06;5010418;28;20833;-84
2023/05/18 11:09:49;;;;;;;10.63;4.90;;;;;;;15.06;51.41;155228.84;4994859;28;20447;-84
2023/05/18 11:12:17;;;;;;;5.00;4.07;;;;;;;15.36;52.09;155306.78;5010219;28;20492;-84
2023/05/18 11:14:52;;;;;;;4.73;4.20;;;;;;;15.47;50.97;155335.44;5011067;28;20456;-85
2023/05/18 11:17:21;;;;;;;7.47;4.60;;;;;;;15.44;48.25;155326.28;5007775;28;20502;-85
2023/05/18 11:20:13;;;;;;;5.53;3.60;;;;;;;15.36;49.67;155306.78;5010785;28;20455;-84
2023/05/18 11:22:49;;;;;;;5.00;4.20;;;;;;;15.60;49.10;155367.91;4978942;28;20813;-85
2023/05/18 11:25:38;;;;;;;4.80;3.27;;;;;;;15.71;48.23;155397.84;5009314;28;20529;-85
2023/05/18 11:28:06;;;;;;;12.30;4.70;;;;;;;15.73;49.10;155401.72;4995932;28;20487;-84
2023/05/18 11:30:49;;;;;;;9.03;4.20;;;;;;;15.83;48.35;155429.03;4991412;28;20548;-85
2023/05/18 11:33:22;;;;;;;4.93;3.60;;;;;;;15.80;48.32;155421.25;5008745;28;20467;-85
2023/05/18 11:36:01;;;;;;;6.50;3.83;;;;;;;15.80;47.41;155421.25;4971427;28;20442;-85